sensor_id;sensor_type;location;lat;lon;timestamp;temperature;humidity
13610;DHT22;6876;50.788;4.940;2022-12-18T00:01:14;-6.10;99.90
13610;DHT22;6876;50.788;4.940;2022-12-18T00:04:03;-6.10;99.90
13610;DHT22;6876;50.788;4.940;2022-12-18T00:06:52;-6.20;99.90
13610;DHT22;6876;50.788;4.940;2022-12-18T00:09:40;-6.20;99.90
13610;DHT22;6876;50.788;4.940;2022-12-18T00:12:28;-6.20;99.90
13610;DHT22;6876;50.788;4.940;2022-12-18T00:15:15;-6.20;99.90
13610;DHT22;6876;50.788;4.940;2022-12-18T00:18:03;-6.20;99.90
13610;DHT22;6876;50.788;4.940;2022-12-18T00:20:50;-6.20;99.90
13610;DHT22;6876;50.788;4.940;2022-12-18T00:23:38;-6.20;99.90
13610;DHT22;6876;50.788;4.940;2022-12-18T00:26:28;-6.20;99.90
13610;DHT22;6876;50.788;4.940;2022-12-18T00:29:16;-6.20;99.90
13610;DHT22;6876;50.788;4.940;2022-12-18T00:32:03;-6.20;99.90
13610;DHT22;6876;50.788;4.940;2022-12-18T00:34:50;-6.20;99.90
13610;DHT22;6876;50.788;4.940;2022-12-18T00:37:37;-6.20;99.90
13610;DHT22;6876;50.788;4.940;2022-12-18T00:40:24;-6.30;99.90
13610;DHT22;6876;50.788;4.940;2022-12-18T00:43:13;-6.30;99.90
13610;DHT22;6876;50.788;4.940;2022-12-18T00:45:59;-6.30;99.90
13610;DHT22;6876;50.788;4.940;2022-12-18T00:48:47;-6.30;99.90
13610;DHT22;6876;50.788;4.940;2022-12-18T00:51:34;-6.40;99.90
13610;DHT22;6876;50.788;4.940;2022-12-18T00:54:21;-6.40;99.90
13610;DHT22;6876;50.788;4.940;2022-12-18T00:57:08;-6.50;99.90
13610;DHT22;6876;50.788;4.940;2022-12-18T00:59:57;-6.50;99.90
13610;DHT22;6876;50.788;4.940;2022-12-18T01:02:44;-6.60;99.90
13610;DHT22;6876;50.788;4.940;2022-12-18T01:05:32;-6.70;99.90
13610;DHT22;6876;50.788;4.940;2022-12-18T01:08:19;-6.80;99.90
13610;DHT22;6876;50.788;4.940;2022-12-18T01:11:08;-6.80;99.90
13610;DHT22;6876;50.788;4.940;2022-12-18T01:13:55;-6.70;99.90
13610;DHT22;6876;50.788;4.940;2022-12-18T01:16:44;-6.80;99.90
13610;DHT22;6876;50.788;4.940;2022-12-18T01:19:31;-6.70;99.90
13610;DHT22;6876;50.788;4.940;2022-12-18T01:22:19;-6.70;99.90
13610;DHT22;6876;50.788;4.940;2022-12-18T01:25:06;-6.70;99.90
13610;DHT22;6876;50.788;4.940;2022-12-18T01:27:54;-6.60;99.90
13610;DHT22;6876;50.788;4.940;2022-12-18T01:30:41;-6.60;99.90
13610;DHT22;6876;50.788;4.940;2022-12-18T01:33:30;-6.60;99.90
13610;DHT22;6876;50.788;4.940;2022-12-18T01:36:19;-6.60;99.90
13610;DHT22;6876;50.788;4.940;2022-12-18T01:39:10;-6.60;99.90
13610;DHT22;6876;50.788;4.940;2022-12-18T01:41:57;-6.60;99.90
13610;DHT22;6876;50.788;4.940;2022-12-18T01:45:03;-6.60;99.90
13610;DHT22;6876;50.788;4.940;2022-12-18T01:47:52;-6.60;99.90
13610;DHT22;6876;50.788;4.940;2022-12-18T01:50:42;-6.60;99.90
13610;DHT22;6876;50.788;4.940;2022-12-18T01:53:29;-6.70;99.90
13610;DHT22;6876;50.788;4.940;2022-12-18T01:56:18;-6.70;99.90
13610;DHT22;6876;50.788;4.940;2022-12-18T01:59:09;-6.60;99.90
13610;DHT22;6876;50.788;4.940;2022-12-18T02:01:57;-6.60;99.90
13610;DHT22;6876;50.788;4.940;2022-12-18T02:04:44;-6.60;99.90
13610;DHT22;6876;50.788;4.940;2022-12-18T02:07:40;-6.70;99.90
13610;DHT22;6876;50.788;4.940;2022-12-18T02:10:32;-6.70;99.90
13610;DHT22;6876;50.788;4.940;2022-12-18T02:13:27;-6.70;99.90
13610;DHT22;6876;50.788;4.940;2022-12-18T02:16:23;-6.70;99.90
13610;DHT22;6876;50.788;4.940;2022-12-18T02:19:27;-6.70;99.90
13610;DHT22;6876;50.788;4.940;2022-12-18T02:22:27;-6.70;99.90
13610;DHT22;6876;50.788;4.940;2022-12-18T02:25:28;-6.60;99.90
13610;DHT22;6876;50.788;4.940;2022-12-18T02:28:20;-6.60;99.90
13610;DHT22;6876;50.788;4.940;2022-12-18T02:31:12;-6.60;99.90
13610;DHT22;6876;50.788;4.940;2022-12-18T02:34:03;-6.60;99.90
13610;DHT22;6876;50.788;4.940;2022-12-18T02:36:53;-6.60;99.90
13610;DHT22;6876;50.788;4.940;2022-12-18T02:39:43;-6.60;99.90
13610;DHT22;6876;50.788;4.940;2022-12-18T02:42:32;-6.70;99.90
13610;DHT22;6876;50.788;4.940;2022-12-18T02:45:21;-6.70;99.90
13610;DHT22;6876;50.788;4.940;2022-12-18T02:48:08;-6.60;99.90
13610;DHT22;6876;50.788;4.940;2022-12-18T02:51:01;-6.60;99.90
13610;DHT22;6876;50.788;4.940;2022-12-18T02:53:56;-6.60;99.90
13610;DHT22;6876;50.788;4.940;2022-12-18T02:56:50;-6.60;99.90
13610;DHT22;6876;50.788;4.940;2022-12-18T02:59:43;-6.70;99.90
13610;DHT22;6876;50.788;4.940;2022-12-18T03:02:37;-6.70;99.90
13610;DHT22;6876;50.788;4.940;2022-12-18T03:05:30;-6.70;99.90
13610;DHT22;6876;50.788;4.940;2022-12-18T03:08:21;-6.70;99.90
13610;DHT22;6876;50.788;4.940;2022-12-18T03:11:11;-6.70;99.90
13610;DHT22;6876;50.788;4.940;2022-12-18T03:13:59;-6.70;99.90
13610;DHT22;6876;50.788;4.940;2022-12-18T03:16:48;-6.60;99.90
13610;DHT22;6876;50.788;4.940;2022-12-18T03:19:38;-6.60;99.90
13610;DHT22;6876;50.788;4.940;2022-12-18T03:22:27;-6.60;99.90
13610;DHT22;6876;50.788;4.940;2022-12-18T03:25:17;-6.50;99.90
13610;DHT22;6876;50.788;4.940;2022-12-18T03:28:07;-6.50;99.90
13610;DHT22;6876;50.788;4.940;2022-12-18T03:30:57;-6.50;99.90
13610;DHT22;6876;50.788;4.940;2022-12-18T03:33:50;-6.40;99.90
13610;DHT22;6876;50.788;4.940;2022-12-18T03:36:39;-6.40;99.90
13610;DHT22;6876;50.788;4.940;2022-12-18T03:39:26;-6.40;99.90
13610;DHT22;6876;50.788;4.940;2022-12-18T03:42:16;-6.50;99.90
13610;DHT22;6876;50.788;4.940;2022-12-18T03:45:11;-6.60;99.90
13610;DHT22;6876;50.788;4.940;2022-12-18T03:48:01;-6.70;99.90
13610;DHT22;6876;50.788;4.940;2022-12-18T03:50:56;-6.90;99.90
13610;DHT22;6876;50.788;4.940;2022-12-18T03:53:49;-6.80;99.90
13610;DHT22;6876;50.788;4.940;2022-12-18T03:56:39;-6.70;99.90
13610;DHT22;6876;50.788;4.940;2022-12-18T03:59:29;-6.60;99.90
13610;DHT22;6876;50.788;4.940;2022-12-18T04:02:18;-6.60;99.90
13610;DHT22;6876;50.788;4.940;2022-12-18T04:05:07;-6.60;99.90
13610;DHT22;6876;50.788;4.940;2022-12-18T04:07:56;-6.70;99.90
13610;DHT22;6876;50.788;4.940;2022-12-18T04:10:45;-6.70;99.90
13610;DHT22;6876;50.788;4.940;2022-12-18T04:13:35;-6.60;99.90
13610;DHT22;6876;50.788;4.940;2022-12-18T04:16:23;-6.60;99.90
13610;DHT22;6876;50.788;4.940;2022-12-18T04:19:10;-6.50;99.90
13610;DHT22;6876;50.788;4.940;2022-12-18T04:21:58;-6.50;99.90
13610;DHT22;6876;50.788;4.940;2022-12-18T04:24:45;-6.50;99.90
13610;DHT22;6876;50.788;4.940;2022-12-18T04:27:33;-6.50;99.90
13610;DHT22;6876;50.788;4.940;2022-12-18T04:30:21;-6.50;99.90
13610;DHT22;6876;50.788;4.940;2022-12-18T04:33:09;-6.60;99.90
13610;DHT22;6876;50.788;4.940;2022-12-18T04:35:56;-6.60;99.90
13610;DHT22;6876;50.788;4.940;2022-12-18T04:38:43;-6.60;99.90
13610;DHT22;6876;50.788;4.940;2022-12-18T04:41:31;-6.70;99.90
13610;DHT22;6876;50.788;4.940;2022-12-18T04:44:19;-6.70;99.90
13610;DHT22;6876;50.788;4.940;2022-12-18T04:47:07;-6.80;99.90
13610;DHT22;6876;50.788;4.940;2022-12-18T04:49:54;-6.90;99.90
13610;DHT22;6876;50.788;4.940;2022-12-18T04:52:41;-6.90;99.90
13610;DHT22;6876;50.788;4.940;2022-12-18T04:55:28;-6.90;99.90
13610;DHT22;6876;50.788;4.940;2022-12-18T04:58:16;-6.90;99.90
13610;DHT22;6876;50.788;4.940;2022-12-18T05:01:05;-6.90;99.90
13610;DHT22;6876;50.788;4.940;2022-12-18T05:03:53;-6.90;99.90
13610;DHT22;6876;50.788;4.940;2022-12-18T05:06:40;-7.00;99.90
13610;DHT22;6876;50.788;4.940;2022-12-18T05:09:27;-6.90;99.90
13610;DHT22;6876;50.788;4.940;2022-12-18T05:12:15;-6.90;99.90
13610;DHT22;6876;50.788;4.940;2022-12-18T05:15:03;-7.00;99.90
13610;DHT22;6876;50.788;4.940;2022-12-18T05:17:52;-6.90;99.90
13610;DHT22;6876;50.788;4.940;2022-12-18T05:20:39;-7.00;99.90
13610;DHT22;6876;50.788;4.940;2022-12-18T05:23:27;-7.00;99.90
13610;DHT22;6876;50.788;4.940;2022-12-18T05:26:16;-7.00;99.90
13610;DHT22;6876;50.788;4.940;2022-12-18T05:29:04;-7.00;99.90
13610;DHT22;6876;50.788;4.940;2022-12-18T05:31:51;-6.90;99.90
13610;DHT22;6876;50.788;4.940;2022-12-18T05:34:40;-6.90;99.90
13610;DHT22;6876;50.788;4.940;2022-12-18T05:37:27;-6.90;99.90
13610;DHT22;6876;50.788;4.940;2022-12-18T05:40:14;-7.00;99.90
13610;DHT22;6876;50.788;4.940;2022-12-18T05:43:05;-7.00;99.90
13610;DHT22;6876;50.788;4.940;2022-12-18T05:45:52;-7.00;99.90
13610;DHT22;6876;50.788;4.940;2022-12-18T05:48:40;-7.10;99.90
13610;DHT22;6876;50.788;4.940;2022-12-18T05:51:28;-7.10;99.90
13610;DHT22;6876;50.788;4.940;2022-12-18T05:54:15;-7.10;99.90
13610;DHT22;6876;50.788;4.940;2022-12-18T05:57:03;-7.10;99.90
13610;DHT22;6876;50.788;4.940;2022-12-18T05:59:50;-7.00;99.90
13610;DHT22;6876;50.788;4.940;2022-12-18T06:02:38;-7.00;99.90
13610;DHT22;6876;50.788;4.940;2022-12-18T06:05:25;-7.10;99.90
13610;DHT22;6876;50.788;4.940;2022-12-18T06:08:14;-7.20;99.90
13610;DHT22;6876;50.788;4.940;2022-12-18T06:11:01;-7.20;99.90
13610;DHT22;6876;50.788;4.940;2022-12-18T06:13:50;-7.20;99.90
13610;DHT22;6876;50.788;4.940;2022-12-18T06:16:37;-7.30;99.90
13610;DHT22;6876;50.788;4.940;2022-12-18T06:19:24;-7.30;99.90
13610;DHT22;6876;50.788;4.940;2022-12-18T06:22:11;-7.30;99.90
13610;DHT22;6876;50.788;4.940;2022-12-18T06:25:00;-7.40;99.90
13610;DHT22;6876;50.788;4.940;2022-12-18T06:27:47;-7.40;99.90
13610;DHT22;6876;50.788;4.940;2022-12-18T06:30:35;-7.40;99.90
13610;DHT22;6876;50.788;4.940;2022-12-18T06:33:25;-7.30;99.90
13610;DHT22;6876;50.788;4.940;2022-12-18T06:36:14;-7.30;99.90
13610;DHT22;6876;50.788;4.940;2022-12-18T06:39:01;-7.40;99.90
13610;DHT22;6876;50.788;4.940;2022-12-18T06:41:50;-7.30;99.90
13610;DHT22;6876;50.788;4.940;2022-12-18T06:44:37;-7.30;99.90
13610;DHT22;6876;50.788;4.940;2022-12-18T06:47:25;-7.20;99.90
13610;DHT22;6876;50.788;4.940;2022-12-18T06:50:12;-7.20;99.90
13610;DHT22;6876;50.788;4.940;2022-12-18T06:52:59;-7.10;99.90
13610;DHT22;6876;50.788;4.940;2022-12-18T06:55:47;-7.10;99.90
13610;DHT22;6876;50.788;4.940;2022-12-18T06:58:36;-7.10;99.90
13610;DHT22;6876;50.788;4.940;2022-12-18T07:01:23;-7.10;99.90
13610;DHT22;6876;50.788;4.940;2022-12-18T07:04:10;-7.10;99.90
13610;DHT22;6876;50.788;4.940;2022-12-18T07:06:58;-7.10;99.90
13610;DHT22;6876;50.788;4.940;2022-12-18T07:09:45;-7.10;99.90
13610;DHT22;6876;50.788;4.940;2022-12-18T07:12:32;-7.10;99.90
13610;DHT22;6876;50.788;4.940;2022-12-18T07:15:21;-7.10;99.90
13610;DHT22;6876;50.788;4.940;2022-12-18T07:18:08;-7.10;99.90
13610;DHT22;6876;50.788;4.940;2022-12-18T07:20:55;-7.10;99.90
13610;DHT22;6876;50.788;4.940;2022-12-18T07:23:43;-7.00;99.90
13610;DHT22;6876;50.788;4.940;2022-12-18T07:26:30;-7.00;99.90
13610;DHT22;6876;50.788;4.940;2022-12-18T07:29:17;-6.90;99.90
13610;DHT22;6876;50.788;4.940;2022-12-18T07:32:06;-6.90;99.90
13610;DHT22;6876;50.788;4.940;2022-12-18T07:34:54;-6.90;99.90
13610;DHT22;6876;50.788;4.940;2022-12-18T07:37:41;-6.90;99.90
13610;DHT22;6876;50.788;4.940;2022-12-18T07:40:28;-7.00;99.90
13610;DHT22;6876;50.788;4.940;2022-12-18T07:43:15;-7.00;99.90
13610;DHT22;6876;50.788;4.940;2022-12-18T07:46:03;-7.00;99.90
13610;DHT22;6876;50.788;4.940;2022-12-18T07:48:52;-6.90;99.90
13610;DHT22;6876;50.788;4.940;2022-12-18T07:51:39;-6.90;99.90
13610;DHT22;6876;50.788;4.940;2022-12-18T07:54:26;-6.90;99.90
13610;DHT22;6876;50.788;4.940;2022-12-18T07:57:14;-6.90;99.90
13610;DHT22;6876;50.788;4.940;2022-12-18T08:00:01;-6.90;99.90
13610;DHT22;6876;50.788;4.940;2022-12-18T08:02:48;-6.90;99.90
13610;DHT22;6876;50.788;4.940;2022-12-18T08:05:37;-6.90;99.90
13610;DHT22;6876;50.788;4.940;2022-12-18T08:08:24;-6.90;99.90
13610;DHT22;6876;50.788;4.940;2022-12-18T08:11:11;-6.80;99.90
13610;DHT22;6876;50.788;4.940;2022-12-18T08:13:58;-6.70;99.90
13610;DHT22;6876;50.788;4.940;2022-12-18T08:16:45;-6.60;99.90
13610;DHT22;6876;50.788;4.940;2022-12-18T08:19:33;-6.60;99.90
13610;DHT22;6876;50.788;4.940;2022-12-18T08:22:21;-6.50;99.90
13610;DHT22;6876;50.788;4.940;2022-12-18T08:25:09;-6.40;99.90
13610;DHT22;6876;50.788;4.940;2022-12-18T08:27:57;-6.30;99.90
13610;DHT22;6876;50.788;4.940;2022-12-18T08:30:44;-6.30;99.90
13610;DHT22;6876;50.788;4.940;2022-12-18T08:33:32;-6.20;99.90
13610;DHT22;6876;50.788;4.940;2022-12-18T08:36:19;-6.00;99.90
13610;DHT22;6876;50.788;4.940;2022-12-18T08:39:08;-5.90;99.90
13610;DHT22;6876;50.788;4.940;2022-12-18T08:41:55;-5.80;99.90
13610;DHT22;6876;50.788;4.940;2022-12-18T08:45:00;-5.60;99.90
13610;DHT22;6876;50.788;4.940;2022-12-18T08:47:47;-5.50;99.90
13610;DHT22;6876;50.788;4.940;2022-12-18T08:50:35;-5.40;99.90
13610;DHT22;6876;50.788;4.940;2022-12-18T08:53:22;-5.10;99.90
13610;DHT22;6876;50.788;4.940;2022-12-18T08:56:12;-5.00;99.90
13610;DHT22;6876;50.788;4.940;2022-12-18T08:58:59;-4.80;99.90
13610;DHT22;6876;50.788;4.940;2022-12-18T09:01:47;-4.80;99.90
13610;DHT22;6876;50.788;4.940;2022-12-18T09:04:34;-4.70;99.90
13610;DHT22;6876;50.788;4.940;2022-12-18T09:07:21;-4.60;99.90
13610;DHT22;6876;50.788;4.940;2022-12-18T09:10:09;-4.50;99.90
13610;DHT22;6876;50.788;4.940;2022-12-18T09:12:58;-4.30;99.90
13610;DHT22;6876;50.788;4.940;2022-12-18T09:15:46;-4.20;99.90
13610;DHT22;6876;50.788;4.940;2022-12-18T09:18:34;-4.20;99.90
13610;DHT22;6876;50.788;4.940;2022-12-18T09:21:21;-4.10;99.90
13610;DHT22;6876;50.788;4.940;2022-12-18T09:24:12;-4.00;99.90
13610;DHT22;6876;50.788;4.940;2022-12-18T09:27:00;-3.80;99.90
13610;DHT22;6876;50.788;4.940;2022-12-18T09:29:49;-3.70;99.90
13610;DHT22;6876;50.788;4.940;2022-12-18T09:32:36;-3.60;99.90
13610;DHT22;6876;50.788;4.940;2022-12-18T09:35:23;-3.40;99.90
13610;DHT22;6876;50.788;4.940;2022-12-18T09:38:12;-3.40;99.90
13610;DHT22;6876;50.788;4.940;2022-12-18T09:41:04;-3.40;99.90
13610;DHT22;6876;50.788;4.940;2022-12-18T09:43:57;-3.50;99.40
13610;DHT22;6876;50.788;4.940;2022-12-18T09:46:50;-3.50;99.90
13610;DHT22;6876;50.788;4.940;2022-12-18T09:49:42;-3.40;99.90
13610;DHT22;6876;50.788;4.940;2022-12-18T09:52:32;-3.30;99.90
13610;DHT22;6876;50.788;4.940;2022-12-18T09:55:24;-3.20;99.90
13610;DHT22;6876;50.788;4.940;2022-12-18T09:58:19;-3.10;99.90
13610;DHT22;6876;50.788;4.940;2022-12-18T10:01:10;-3.00;99.90
13610;DHT22;6876;50.788;4.940;2022-12-18T10:03:59;-3.00;99.90
13610;DHT22;6876;50.788;4.940;2022-12-18T10:06:52;-2.90;99.90
13610;DHT22;6876;50.788;4.940;2022-12-18T10:09:45;-2.90;99.90
13610;DHT22;6876;50.788;4.940;2022-12-18T10:12:43;-2.80;99.90
13610;DHT22;6876;50.788;4.940;2022-12-18T10:15:37;-2.80;99.90
13610;DHT22;6876;50.788;4.940;2022-12-18T10:18:38;-2.80;99.90
13610;DHT22;6876;50.788;4.940;2022-12-18T10:21:32;-2.80;99.90
13610;DHT22;6876;50.788;4.940;2022-12-18T10:24:24;-2.90;99.90
13610;DHT22;6876;50.788;4.940;2022-12-18T10:27:15;-2.90;99.90
13610;DHT22;6876;50.788;4.940;2022-12-18T10:30:12;-2.90;99.90
13610;DHT22;6876;50.788;4.940;2022-12-18T10:33:00;-2.90;99.90
13610;DHT22;6876;50.788;4.940;2022-12-18T10:35:49;-2.80;99.90
13610;DHT22;6876;50.788;4.940;2022-12-18T10:38:38;-2.70;99.90
13610;DHT22;6876;50.788;4.940;2022-12-18T10:41:26;-2.50;99.90
13610;DHT22;6876;50.788;4.940;2022-12-18T10:44:18;-2.40;99.90
13610;DHT22;6876;50.788;4.940;2022-12-18T10:47:12;-2.30;99.90
13610;DHT22;6876;50.788;4.940;2022-12-18T10:49:59;-2.30;99.90
13610;DHT22;6876;50.788;4.940;2022-12-18T10:52:54;-2.30;99.90
13610;DHT22;6876;50.788;4.940;2022-12-18T10:55:45;-2.30;99.90
13610;DHT22;6876;50.788;4.940;2022-12-18T10:58:34;-2.20;99.90
13610;DHT22;6876;50.788;4.940;2022-12-18T11:01:22;-2.20;99.90
13610;DHT22;6876;50.788;4.940;2022-12-18T11:04:13;-2.10;99.90
13610;DHT22;6876;50.788;4.940;2022-12-18T11:07:04;-2.00;99.90
13610;DHT22;6876;50.788;4.940;2022-12-18T11:10:04;-1.90;99.90
13610;DHT22;6876;50.788;4.940;2022-12-18T11:12:53;-1.90;99.90
13610;DHT22;6876;50.788;4.940;2022-12-18T11:15:41;-1.80;99.90
13610;DHT22;6876;50.788;4.940;2022-12-18T11:18:31;-1.60;99.90
13610;DHT22;6876;50.788;4.940;2022-12-18T11:21:20;-1.50;99.90
13610;DHT22;6876;50.788;4.940;2022-12-18T11:24:19;-1.40;99.90
13610;DHT22;6876;50.788;4.940;2022-12-18T11:27:17;-1.30;99.90
13610;DHT22;6876;50.788;4.940;2022-12-18T11:30:21;-1.20;99.90
13610;DHT22;6876;50.788;4.940;2022-12-18T11:33:10;-1.00;99.90
13610;DHT22;6876;50.788;4.940;2022-12-18T11:36:02;-0.80;99.90
13610;DHT22;6876;50.788;4.940;2022-12-18T11:38:52;-0.80;99.90
13610;DHT22;6876;50.788;4.940;2022-12-18T11:41:47;-0.70;99.90
13610;DHT22;6876;50.788;4.940;2022-12-18T11:44:56;-0.60;99.90
13610;DHT22;6876;50.788;4.940;2022-12-18T11:47:52;-0.60;99.90
13610;DHT22;6876;50.788;4.940;2022-12-18T11:50:46;-0.50;99.90
13610;DHT22;6876;50.788;4.940;2022-12-18T11:53:37;-0.50;99.90
13610;DHT22;6876;50.788;4.940;2022-12-18T11:56:32;-0.60;99.90
13610;DHT22;6876;50.788;4.940;2022-12-18T11:59:29;-0.50;99.90
13610;DHT22;6876;50.788;4.940;2022-12-18T12:02:35;-0.40;99.90
13610;DHT22;6876;50.788;4.940;2022-12-18T12:05:31;-0.30;99.90
13610;DHT22;6876;50.788;4.940;2022-12-18T12:08:29;-0.30;99.90
13610;DHT22;6876;50.788;4.940;2022-12-18T12:11:26;-0.30;99.90
13610;DHT22;6876;50.788;4.940;2022-12-18T12:14:34;-0.30;99.90
13610;DHT22;6876;50.788;4.940;2022-12-18T12:17:31;-0.30;99.90
13610;DHT22;6876;50.788;4.940;2022-12-18T12:20:24;-0.20;99.90
13610;DHT22;6876;50.788;4.940;2022-12-18T12:23:23;-0.10;99.90
13610;DHT22;6876;50.788;4.940;2022-12-18T12:26:18;0.00;99.90
13610;DHT22;6876;50.788;4.940;2022-12-18T12:29:30;0.00;99.90
13610;DHT22;6876;50.788;4.940;2022-12-18T12:32:34;0.10;99.90
13610;DHT22;6876;50.788;4.940;2022-12-18T12:35:31;0.00;99.90
13610;DHT22;6876;50.788;4.940;2022-12-18T12:38:27;0.00;99.90
13610;DHT22;6876;50.788;4.940;2022-12-18T12:41:18;0.10;99.90
13610;DHT22;6876;50.788;4.940;2022-12-18T12:44:26;0.10;99.90
13610;DHT22;6876;50.788;4.940;2022-12-18T12:47:20;0.10;99.90
13610;DHT22;6876;50.788;4.940;2022-12-18T12:50:14;0.20;99.90
13610;DHT22;6876;50.788;4.940;2022-12-18T12:53:06;0.30;99.90
13610;DHT22;6876;50.788;4.940;2022-12-18T12:55:56;0.40;99.90
13610;DHT22;6876;50.788;4.940;2022-12-18T12:58:52;0.40;99.90
13610;DHT22;6876;50.788;4.940;2022-12-18T13:01:51;0.30;99.90
13610;DHT22;6876;50.788;4.940;2022-12-18T13:04:45;0.30;99.90
13610;DHT22;6876;50.788;4.940;2022-12-18T13:07:38;0.30;99.90
13610;DHT22;6876;50.788;4.940;2022-12-18T13:10:32;0.50;99.90
13610;DHT22;6876;50.788;4.940;2022-12-18T13:13:20;0.60;99.90
13610;DHT22;6876;50.788;4.940;2022-12-18T13:29:44;0.70;99.90
13610;DHT22;6876;50.788;4.940;2022-12-18T13:32:32;0.90;98.40
13610;DHT22;6876;50.788;4.940;2022-12-18T13:35:39;0.90;54.70
13610;DHT22;6876;50.788;4.940;2022-12-18T13:38:33;1.00;21.80
13610;DHT22;6876;50.788;4.940;2022-12-18T13:41:24;1.00;12.10
13610;DHT22;6876;50.788;4.940;2022-12-18T13:44:13;1.00;13.40
13610;DHT22;6876;50.788;4.940;2022-12-18T13:47:26;1.00;18.20
13610;DHT22;6876;50.788;4.940;2022-12-18T13:50:25;1.00;12.40
13610;DHT22;6876;50.788;4.940;2022-12-18T13:53:18;0.90;1.00
13610;DHT22;6876;50.788;4.940;2022-12-18T13:56:07;0.90;1.00
13610;DHT22;6876;50.788;4.940;2022-12-18T13:59:21;0.80;1.00
13610;DHT22;6876;50.788;4.940;2022-12-18T14:02:14;0.90;1.00
13610;DHT22;6876;50.788;4.940;2022-12-18T14:05:02;0.80;1.00
13610;DHT22;6876;50.788;4.940;2022-12-18T14:07:49;0.80;1.00
13610;DHT22;6876;50.788;4.940;2022-12-18T14:10:40;0.80;1.00
13610;DHT22;6876;50.788;4.940;2022-12-18T14:13:30;0.70;1.00
13610;DHT22;6876;50.788;4.940;2022-12-18T14:16:18;0.70;1.00
13610;DHT22;6876;50.788;4.940;2022-12-18T14:19:13;0.70;1.00
13610;DHT22;6876;50.788;4.940;2022-12-18T14:22:04;0.60;1.00
13610;DHT22;6876;50.788;4.940;2022-12-18T14:25:13;0.60;1.00
13610;DHT22;6876;50.788;4.940;2022-12-18T14:28:08;0.60;1.00
13610;DHT22;6876;50.788;4.940;2022-12-18T14:30:58;0.60;1.00
13610;DHT22;6876;50.788;4.940;2022-12-18T14:33:46;0.60;1.00
13610;DHT22;6876;50.788;4.940;2022-12-18T14:36:34;0.70;1.00
13610;DHT22;6876;50.788;4.940;2022-12-18T14:39:22;0.60;1.00
13610;DHT22;6876;50.788;4.940;2022-12-18T14:42:11;0.60;1.00
13610;DHT22;6876;50.788;4.940;2022-12-18T14:45:33;0.60;1.00
13610;DHT22;6876;50.788;4.940;2022-12-18T14:48:31;0.60;1.00
13610;DHT22;6876;50.788;4.940;2022-12-18T14:51:21;0.50;1.00
13610;DHT22;6876;50.788;4.940;2022-12-18T14:54:17;0.50;1.00
13610;DHT22;6876;50.788;4.940;2022-12-18T14:57:06;0.50;1.00
13610;DHT22;6876;50.788;4.940;2022-12-18T15:16:21;0.50;1.00
13610;DHT22;6876;50.788;4.940;2022-12-18T15:19:09;0.40;1.00
13610;DHT22;6876;50.788;4.940;2022-12-18T15:21:56;0.40;1.00
13610;DHT22;6876;50.788;4.940;2022-12-18T15:24:44;0.40;1.00
13610;DHT22;6876;50.788;4.940;2022-12-18T15:27:32;0.40;1.00
13610;DHT22;6876;50.788;4.940;2022-12-18T15:30:23;0.40;1.00
13610;DHT22;6876;50.788;4.940;2022-12-18T15:33:24;0.40;1.00
13610;DHT22;6876;50.788;4.940;2022-12-18T15:36:13;0.40;1.00
13610;DHT22;6876;50.788;4.940;2022-12-18T15:39:00;0.50;1.00
13610;DHT22;6876;50.788;4.940;2022-12-18T15:41:48;0.40;99.90
13610;DHT22;6876;50.788;4.940;2022-12-18T15:44:53;0.50;99.90
13610;DHT22;6876;50.788;4.940;2022-12-18T15:47:40;0.50;99.90
13610;DHT22;6876;50.788;4.940;2022-12-18T15:50:30;0.50;58.20
13610;DHT22;6876;50.788;4.940;2022-12-18T15:53:18;0.50;99.90
13610;DHT22;6876;50.788;4.940;2022-12-18T15:56:09;0.50;99.90
13610;DHT22;6876;50.788;4.940;2022-12-18T15:59:16;0.40;99.90
13610;DHT22;6876;50.788;4.940;2022-12-18T16:02:15;0.40;99.90
13610;DHT22;6876;50.788;4.940;2022-12-18T16:05:03;0.40;99.90
13610;DHT22;6876;50.788;4.940;2022-12-18T16:07:52;0.40;99.90
13610;DHT22;6876;50.788;4.940;2022-12-18T16:10:39;0.30;99.90
13610;DHT22;6876;50.788;4.940;2022-12-18T16:13:26;0.40;99.90
13610;DHT22;6876;50.788;4.940;2022-12-18T16:16:13;0.30;99.90
13610;DHT22;6876;50.788;4.940;2022-12-18T16:19:01;0.40;99.90
13610;DHT22;6876;50.788;4.940;2022-12-18T16:21:49;0.40;99.90
13610;DHT22;6876;50.788;4.940;2022-12-18T16:24:38;0.50;88.20
13610;DHT22;6876;50.788;4.940;2022-12-18T16:27:26;0.50;2.10
13610;DHT22;6876;50.788;4.940;2022-12-18T16:30:14;0.50;1.00
13610;DHT22;6876;50.788;4.940;2022-12-18T16:33:01;0.50;1.00
13610;DHT22;6876;50.788;4.940;2022-12-18T16:35:51;0.60;1.00
13610;DHT22;6876;50.788;4.940;2022-12-18T16:38:39;0.60;1.00
13610;DHT22;6876;50.788;4.940;2022-12-18T16:41:27;0.60;99.90
13610;DHT22;6876;50.788;4.940;2022-12-18T16:44:18;0.70;99.90
13610;DHT22;6876;50.788;4.940;2022-12-18T16:47:05;0.70;1.00
13610;DHT22;6876;50.788;4.940;2022-12-18T16:49:52;0.70;1.00
13610;DHT22;6876;50.788;4.940;2022-12-18T16:52:40;0.70;1.00
13610;DHT22;6876;50.788;4.940;2022-12-18T16:55:27;0.80;1.00
13610;DHT22;6876;50.788;4.940;2022-12-18T16:58:16;0.80;1.00
13610;DHT22;6876;50.788;4.940;2022-12-18T17:01:07;0.80;1.00
13610;DHT22;6876;50.788;4.940;2022-12-18T17:03:55;0.80;1.00
13610;DHT22;6876;50.788;4.940;2022-12-18T17:06:44;0.80;1.00
13610;DHT22;6876;50.788;4.940;2022-12-18T17:09:36;0.80;1.00
13610;DHT22;6876;50.788;4.940;2022-12-18T17:12:24;0.80;1.00
13610;DHT22;6876;50.788;4.940;2022-12-18T17:15:13;0.80;1.00
13610;DHT22;6876;50.788;4.940;2022-12-18T17:18:00;0.90;99.90
13610;DHT22;6876;50.788;4.940;2022-12-18T17:20:47;0.90;99.90
13610;DHT22;6876;50.788;4.940;2022-12-18T17:23:35;0.80;99.90
13610;DHT22;6876;50.788;4.940;2022-12-18T17:26:22;0.90;99.90
13610;DHT22;6876;50.788;4.940;2022-12-18T17:29:12;0.90;99.90
13610;DHT22;6876;50.788;4.940;2022-12-18T17:32:01;0.90;99.90
13610;DHT22;6876;50.788;4.940;2022-12-18T17:34:49;0.90;99.90
13610;DHT22;6876;50.788;4.940;2022-12-18T17:37:36;0.90;69.00
13610;DHT22;6876;50.788;4.940;2022-12-18T17:40:23;0.90;99.90
13610;DHT22;6876;50.788;4.940;2022-12-18T17:43:11;0.90;1.00
13610;DHT22;6876;50.788;4.940;2022-12-18T17:46:00;0.90;1.00
13610;DHT22;6876;50.788;4.940;2022-12-18T17:48:49;1.00;1.00
13610;DHT22;6876;50.788;4.940;2022-12-18T17:51:36;1.00;1.00
13610;DHT22;6876;50.788;4.940;2022-12-18T17:54:24;1.00;1.00
13610;DHT22;6876;50.788;4.940;2022-12-18T17:57:11;1.10;1.00
13610;DHT22;6876;50.788;4.940;2022-12-18T17:59:58;1.00;1.00
13610;DHT22;6876;50.788;4.940;2022-12-18T18:02:45;1.10;1.00
13610;DHT22;6876;50.788;4.940;2022-12-18T18:05:34;1.10;1.00
13610;DHT22;6876;50.788;4.940;2022-12-18T18:08:21;1.10;1.00
13610;DHT22;6876;50.788;4.940;2022-12-18T18:11:12;1.10;56.10
13610;DHT22;6876;50.788;4.940;2022-12-18T18:14:18;1.00;99.90
13610;DHT22;6876;50.788;4.940;2022-12-18T18:17:06;1.00;99.90
13610;DHT22;6876;50.788;4.940;2022-12-18T18:19:53;1.00;1.00
13610;DHT22;6876;50.788;4.940;2022-12-18T18:22:42;1.00;1.00
13610;DHT22;6876;50.788;4.940;2022-12-18T18:25:29;1.00;1.00
13610;DHT22;6876;50.788;4.940;2022-12-18T18:28:16;1.00;1.00
13610;DHT22;6876;50.788;4.940;2022-12-18T18:31:04;1.00;99.90
13610;DHT22;6876;50.788;4.940;2022-12-18T18:33:51;1.00;1.00
13610;DHT22;6876;50.788;4.940;2022-12-18T18:36:39;1.10;1.00
13610;DHT22;6876;50.788;4.940;2022-12-18T18:39:27;1.00;99.90
13610;DHT22;6876;50.788;4.940;2022-12-18T18:42:15;1.10;99.90
13610;DHT22;6876;50.788;4.940;2022-12-18T18:45:02;1.00;1.00
13610;DHT22;6876;50.788;4.940;2022-12-18T18:47:49;1.10;1.00
13610;DHT22;6876;50.788;4.940;2022-12-18T18:50:37;1.10;1.00
13610;DHT22;6876;50.788;4.940;2022-12-18T18:53:24;1.10;1.00